createdAt,value
2019-03-28T00:01:10.736Z,54.30
2019-03-28T00:03:40.962Z,54.50
2019-03-28T00:06:12.281Z,54.30
2019-03-28T00:08:43.966Z,54.30
2019-03-28T00:11:13.952Z,54.30
2019-03-28T00:13:44.160Z,54.60
2019-03-28T00:16:15.150Z,54.40
2019-03-28T00:18:45.221Z,54.60
2019-03-28T00:21:15.158Z,54.60
2019-03-28T00:24:01.782Z,54.60
2019-03-28T00:26:32.828Z,54.70
2019-03-28T00:29:02.887Z,54.90
2019-03-28T00:31:33.029Z,55.60
2019-03-28T00:34:03.198Z,55.00
2019-03-28T00:36:34.360Z,55.00
2019-03-28T00:39:05.521Z,55.10
2019-03-28T00:41:35.699Z,55.20
2019-03-28T00:44:05.900Z,55.40
2019-03-28T00:46:36.951Z,55.60
2019-03-28T00:49:08.744Z,55.60
2019-03-28T00:51:38.890Z,56.40
2019-03-28T00:54:08.975Z,56.30
2019-03-28T00:56:46.884Z,56.50
2019-03-28T00:59:11.878Z,56.60
2019-03-28T01:01:42.026Z,56.70
2019-03-28T01:04:12.287Z,56.80
2019-03-28T01:06:43.441Z,57.00
2019-03-28T01:09:13.650Z,56.90
2019-03-28T01:11:43.621Z,56.80
2019-03-28T01:14:13.744Z,57.00
2019-03-28T01:16:44.854Z,57.80
2019-03-28T01:19:14.903Z,57.00
2019-03-28T01:21:44.852Z,57.00
2019-03-28T01:24:15.003Z,56.90
2019-03-28T01:26:56.748Z,56.80
2019-03-28T01:29:17.814Z,57.00
2019-03-28T01:31:47.766Z,57.00
2019-03-28T01:34:17.846Z,57.50
2019-03-28T01:36:48.955Z,57.60
2019-03-28T01:39:19.107Z,57.70
2019-03-28T01:41:49.141Z,57.70
2019-03-28T01:44:19.233Z,57.50
2019-03-28T01:46:50.474Z,57.60
2019-03-28T01:49:21.618Z,57.70
2019-03-28T01:51:51.653Z,57.70
2019-03-28T01:54:21.823Z,57.60
2019-03-28T01:56:52.992Z,57.90
2019-03-28T01:59:23.186Z,58.10
2019-03-28T02:01:53.243Z,58.10
2019-03-28T02:04:23.318Z,58.20
2019-03-28T02:06:54.582Z,58.40
2019-03-28T02:09:24.670Z,58.20
2019-03-28T02:11:54.727Z,58.10
2019-03-28T02:14:24.859Z,58.20
2019-03-28T02:16:55.995Z,58.40
2019-03-28T02:19:26.036Z,58.40
2019-03-28T02:21:55.983Z,58.40
2019-03-28T02:24:26.307Z,58.40
2019-03-28T02:26:57.708Z,58.40
2019-03-28T02:29:27.770Z,58.30
2019-03-28T02:31:57.716Z,58.40
2019-03-28T02:34:27.779Z,58.30
2019-03-28T02:36:58.926Z,58.90
2019-03-28T02:39:29.069Z,58.50
2019-03-28T02:41:59.147Z,58.70
2019-03-28T02:44:29.358Z,58.60
2019-03-28T02:47:00.531Z,59.30
2019-03-28T02:49:31.603Z,58.70
2019-03-28T02:52:01.767Z,58.60
2019-03-28T02:54:31.967Z,58.70
2019-03-28T02:57:03.182Z,58.90
2019-03-28T02:59:33.370Z,59.20
2019-03-28T03:02:03.627Z,59.00
2019-03-28T03:04:34.935Z,59.10
2019-03-28T03:07:07.146Z,59.20
2019-03-28T03:09:37.308Z,59.10
2019-03-28T03:12:07.302Z,59.10
2019-03-28T03:14:37.601Z,59.40
2019-03-28T03:17:08.967Z,59.40
2019-03-28T03:19:39.124Z,59.60
2019-03-28T03:22:09.162Z,59.60
2019-03-28T03:24:39.247Z,59.70
2019-03-28T03:27:10.323Z,60.10
2019-03-28T03:29:40.469Z,60.20
2019-03-28T03:32:11.531Z,60.60
2019-03-28T03:34:41.683Z,61.30
2019-03-28T03:37:12.742Z,61.50
2019-03-28T03:39:42.835Z,61.90
2019-03-28T03:42:12.871Z,62.20
2019-03-28T03:44:43.021Z,62.20
2019-03-28T03:47:14.548Z,62.60
2019-03-28T03:49:45.694Z,62.90
2019-03-28T03:52:15.916Z,62.80
2019-03-28T03:54:46.037Z,62.90
2019-03-28T03:57:17.356Z,62.80
2019-03-28T03:59:47.537Z,62.80
2019-03-28T04:02:17.665Z,62.50
2019-03-28T04:04:48.007Z,62.20
2019-03-28T04:07:19.340Z,62.30
2019-03-28T04:09:49.550Z,62.60
2019-03-28T04:12:19.661Z,62.10
2019-03-28T04:14:49.991Z,62.30
2019-03-28T04:17:21.650Z,62.30
2019-03-28T04:19:51.956Z,62.00
2019-03-28T04:22:22.042Z,61.70
2019-03-28T04:24:52.236Z,61.40
2019-03-28T04:27:23.369Z,61.50
2019-03-28T04:29:53.686Z,61.90
2019-03-28T04:32:23.776Z,61.90
2019-03-28T04:34:53.986Z,62.30
2019-03-28T04:37:25.165Z,62.10
2019-03-28T04:39:55.344Z,62.20
2019-03-28T04:42:25.432Z,61.90
2019-03-28T04:44:55.679Z,62.00
2019-03-28T04:47:26.871Z,62.10
2019-03-28T04:49:58.042Z,61.90
2019-03-28T04:52:31.864Z,62.10
2019-03-28T04:55:01.013Z,62.30
2019-03-28T04:57:32.340Z,62.30
2019-03-28T05:00:02.556Z,62.30
2019-03-28T05:02:32.928Z,62.10
2019-03-28T05:05:03.117Z,62.20
2019-03-28T05:07:34.453Z,62.30
2019-03-28T05:10:07.290Z,62.20
2019-03-28T05:12:37.382Z,62.10
2019-03-28T05:15:11.103Z,62.20
2019-03-28T05:17:42.352Z,62.30
2019-03-28T05:20:13.427Z,61.90
2019-03-28T05:22:43.725Z,61.30
2019-03-28T05:25:14.006Z,60.80
2019-03-28T05:27:45.265Z,59.90
2019-03-28T05:30:15.660Z,59.00
2019-03-28T05:32:45.749Z,58.10
2019-03-28T05:35:15.965Z,56.90
2019-03-28T05:37:48.222Z,56.40
2019-03-28T05:40:18.515Z,56.20
2019-03-28T05:42:48.595Z,54.80
2019-03-28T05:45:18.830Z,55.60
2019-03-28T05:47:50.034Z,54.50
2019-03-28T05:50:21.151Z,52.70
2019-03-28T05:52:51.301Z,51.80
2019-03-28T05:55:21.954Z,51.80
2019-03-28T05:57:55.878Z,51.40
2019-03-28T06:00:26.543Z,47.80
2019-03-28T06:02:57.081Z,47.70
2019-03-28T06:05:27.746Z,46.50
2019-03-28T06:07:59.491Z,46.30
2019-03-28T06:10:30.123Z,44.70
2019-03-28T06:13:00.651Z,44.40
2019-03-28T06:15:31.361Z,43.70
2019-03-28T06:18:03.046Z,42.90
2019-03-28T06:20:44.147Z,41.60
2019-03-28T06:23:14.682Z,40.10
2019-03-28T06:25:45.436Z,38.20
2019-03-28T06:28:16.063Z,37.90
2019-03-28T06:30:46.714Z,35.60
2019-03-28T06:33:17.255Z,34.60
2019-03-28T06:35:48.327Z,33.80
2019-03-28T06:38:19.151Z,32.40
2019-03-28T06:40:49.885Z,31.00
2019-03-28T06:43:20.422Z,30.60
2019-03-28T06:45:51.253Z,29.70
2019-03-28T06:48:21.890Z,28.10
2019-03-28T06:50:53.478Z,27.30
2019-03-28T06:53:23.999Z,27.10
2019-03-28T06:55:54.644Z,27.00
2019-03-28T06:58:26.301Z,26.50
2019-03-28T07:00:56.966Z,26.10
2019-03-28T07:03:27.605Z,26.30
2019-03-28T07:05:58.238Z,25.10
2019-03-28T07:08:28.782Z,24.50
2019-03-28T07:10:59.530Z,23.80
2019-03-28T07:13:30.086Z,23.40
2019-03-28T07:16:00.589Z,22.60
2019-03-28T07:18:30.823Z,21.70
2019-03-28T07:21:01.161Z,21.70
2019-03-28T07:23:31.699Z,22.10
2019-03-28T07:26:04.577Z,22.10
2019-03-28T07:28:35.122Z,22.80
2019-03-28T07:31:05.889Z,22.90
2019-03-28T07:33:36.534Z,23.40
2019-03-28T07:36:07.258Z,23.20
2019-03-28T07:38:37.797Z,23.60
2019-03-28T07:41:09.434Z,23.90
2019-03-28T07:43:39.979Z,23.90
2019-03-28T07:46:11.818Z,23.90
2019-03-28T07:48:42.396Z,23.70
2019-03-28T07:51:14.131Z,24.40
2019-03-28T07:53:44.659Z,26.10
2019-03-28T07:56:15.607Z,26.10
2019-03-28T07:58:46.178Z,26.30
2019-03-28T08:01:18.264Z,26.60
2019-03-28T08:03:48.954Z,25.20
2019-03-28T08:06:20.587Z,25.20
2019-03-28T08:08:51.378Z,25.50
2019-03-28T08:11:22.404Z,25.60
2019-03-28T08:13:53.110Z,24.70
2019-03-28T08:16:25.329Z,25.10
2019-03-28T08:18:57.127Z,25.10
2019-03-28T08:21:27.901Z,25.20
2019-03-28T08:23:58.455Z,25.10
2019-03-28T08:26:30.508Z,26.00
2019-03-28T08:29:01.245Z,25.70
2019-03-28T08:31:31.693Z,25.20
2019-03-28T08:34:02.333Z,24.80
2019-03-28T08:36:34.347Z,24.00
2019-03-28T08:39:07.070Z,23.20
2019-03-28T08:41:38.214Z,22.60
2019-03-28T08:44:08.822Z,22.70
2019-03-28T08:46:40.722Z,22.20
2019-03-28T08:49:11.346Z,22.40
2019-03-28T08:51:42.708Z,21.70
2019-03-28T08:54:13.240Z,21.30
2019-03-28T08:56:45.091Z,20.90
2019-03-28T08:59:15.711Z,20.70
2019-03-28T09:01:46.260Z,20.60
2019-03-28T09:04:16.491Z,20.60
2019-03-28T09:06:48.223Z,19.80
2019-03-28T09:09:21.211Z,20.80
2019-03-28T09:11:51.245Z,21.50
2019-03-28T09:14:21.891Z,22.50
2019-03-28T09:16:52.666Z,22.10
2019-03-28T09:19:23.217Z,22.70
2019-03-28T09:21:53.951Z,22.50
2019-03-28T09:24:24.481Z,22.70
2019-03-28T09:26:56.251Z,23.00
2019-03-28T09:29:26.883Z,22.70
2019-03-28T09:31:57.729Z,22.70
2019-03-28T09:34:28.435Z,22.90
2019-03-28T09:37:00.231Z,24.00
2019-03-28T09:39:30.860Z,22.80
2019-03-28T09:42:01.595Z,24.00
2019-03-28T09:44:32.122Z,24.50
2019-03-28T09:47:04.043Z,24.30
2019-03-28T09:49:34.919Z,25.50
2019-03-28T09:52:06.944Z,27.30
2019-03-28T09:54:38.003Z,29.20
2019-03-28T09:57:09.863Z,29.80
2019-03-28T09:59:40.396Z,29.80
2019-03-28T10:02:11.112Z,31.30
2019-03-28T10:04:41.669Z,32.50
2019-03-28T10:07:13.404Z,33.70
2019-03-28T10:09:44.352Z,34.40
2019-03-28T10:12:15.232Z,34.60
2019-03-28T10:14:45.842Z,34.40
2019-03-28T10:17:17.699Z,34.40
2019-03-28T10:19:48.344Z,35.20
2019-03-28T10:22:22.160Z,35.00
2019-03-28T10:24:51.211Z,34.10
2019-03-28T10:27:21.910Z,34.80
2019-03-28T10:29:54.334Z,33.90
2019-03-28T10:32:24.990Z,35.10
2019-03-28T10:34:55.515Z,35.40
2019-03-28T10:37:26.170Z,34.20
2019-03-28T10:39:56.713Z,34.10
2019-03-28T10:42:27.350Z,34.60
2019-03-28T10:44:57.899Z,34.60
2019-03-28T10:47:28.840Z,35.60
2019-03-28T10:49:59.499Z,35.10
2019-03-28T10:52:31.119Z,35.60
2019-03-28T10:55:01.693Z,36.20
2019-03-28T10:57:32.562Z,35.50
2019-03-28T11:00:04.668Z,35.60
2019-03-28T11:02:37.327Z,35.10
2019-03-28T11:05:08.365Z,35.40
2019-03-28T11:07:39.100Z,36.30
2019-03-28T11:10:10.063Z,36.90
2019-03-28T11:12:40.889Z,36.40
2019-03-28T11:15:11.565Z,34.30
2019-03-28T11:17:43.510Z,35.80
2019-03-28T11:20:14.358Z,36.00
2019-03-28T11:22:45.106Z,36.10
2019-03-28T11:25:15.740Z,36.50
2019-03-28T11:27:46.478Z,36.50
2019-03-28T11:30:18.514Z,37.20
2019-03-28T11:32:49.440Z,36.60
2019-03-28T11:35:19.966Z,36.00
2019-03-28T11:37:50.757Z,36.60
2019-03-28T11:40:24.449Z,36.80
2019-03-28T11:42:53.935Z,36.20
2019-03-28T11:45:27.051Z,36.50
2019-03-28T11:47:58.231Z,37.00
2019-03-28T11:50:28.769Z,37.20
2019-03-28T11:53:00.517Z,36.70
2019-03-28T11:55:31.038Z,37.60
2019-03-28T11:58:02.859Z,37.20
2019-03-28T12:00:33.376Z,37.50
2019-03-28T12:03:04.032Z,36.90
2019-03-28T12:05:34.659Z,37.10
2019-03-28T12:08:06.443Z,36.70
2019-03-28T12:10:36.966Z,37.10
2019-03-28T12:13:07.692Z,36.60
2019-03-28T12:15:38.354Z,36.00
2019-03-28T12:18:09.158Z,35.20
2019-03-28T12:20:39.672Z,36.30
2019-03-28T12:23:10.298Z,36.50
2019-03-28T12:25:40.265Z,36.80
2019-03-28T12:28:12.090Z,36.20
2019-03-28T12:30:43.746Z,36.50
2019-03-28T12:33:14.773Z,37.20
2019-03-28T12:35:45.570Z,35.40
2019-03-28T12:38:16.426Z,35.90
2019-03-28T12:40:46.959Z,36.10
2019-03-28T12:43:18.742Z,34.80
2019-03-28T12:45:50.022Z,35.20
2019-03-28T12:48:21.253Z,36.40
2019-03-28T12:50:58.672Z,35.40
2019-03-28T12:53:25.699Z,35.60
2019-03-28T12:55:56.235Z,35.60
2019-03-28T12:58:26.985Z,34.50
2019-03-28T13:00:57.994Z,35.60
2019-03-28T13:03:34.796Z,35.10
2019-03-28T13:06:01.417Z,35.60
2019-03-28T13:08:32.110Z,35.40
2019-03-28T13:11:02.695Z,35.30
2019-03-28T13:13:33.449Z,34.80
2019-03-28T13:16:05.561Z,35.10
2019-03-28T13:18:36.555Z,33.70
2019-03-28T13:21:13.502Z,33.90
2019-03-28T13:23:39.342Z,35.10
2019-03-28T13:26:10.955Z,34.40
2019-03-28T13:28:41.648Z,34.80
2019-03-28T13:31:12.177Z,35.00
2019-03-28T13:33:42.914Z,34.90
2019-03-28T13:36:15.506Z,35.60
2019-03-28T13:38:47.342Z,35.20
2019-03-28T13:41:17.885Z,34.50
2019-03-28T13:43:48.609Z,33.50
2019-03-28T13:46:19.286Z,34.00
2019-03-28T13:48:50.102Z,34.40
2019-03-28T13:51:20.938Z,33.20
2019-03-28T13:53:52.195Z,32.70
2019-03-28T13:56:23.024Z,33.70
2019-03-28T13:58:53.639Z,33.20
2019-03-28T14:01:26.270Z,34.20
2019-03-28T14:03:56.444Z,34.30
2019-03-28T14:06:27.078Z,34.60
2019-03-28T14:08:57.723Z,34.50
2019-03-28T14:11:28.564Z,35.00
2019-03-28T14:13:59.368Z,35.10
2019-03-28T14:16:30.284Z,34.30
2019-03-28T14:19:01.040Z,33.20
2019-03-28T14:21:31.836Z,33.20
2019-03-28T14:24:02.632Z,33.60
2019-03-28T14:26:37.425Z,33.10
2019-03-28T14:29:07.133Z,34.00
2019-03-28T14:31:59.829Z,34.90
2019-03-28T14:34:29.535Z,34.10
2019-03-28T14:37:00.262Z,32.90
2019-03-28T14:39:31.064Z,32.50
2019-03-28T14:42:01.753Z,33.60
2019-03-28T14:44:33.550Z,33.00
2019-03-28T14:47:04.224Z,33.70
2019-03-28T14:49:35.262Z,33.30
2019-03-28T14:52:05.990Z,33.10
2019-03-28T14:54:36.692Z,33.10
2019-03-28T14:57:07.846Z,33.50
2019-03-28T14:59:40.271Z,31.80
2019-03-28T15:02:10.898Z,32.00
2019-03-28T15:04:41.583Z,32.90
2019-03-28T15:07:12.133Z,33.80
2019-03-28T15:09:42.779Z,33.50
2019-03-28T15:12:13.304Z,33.50
2019-03-28T15:14:43.990Z,33.10
2019-03-28T15:17:14.621Z,33.00
2019-03-28T15:19:45.402Z,32.80
2019-03-28T15:22:15.931Z,32.90
2019-03-28T15:24:46.712Z,32.60
2019-03-28T15:27:17.403Z,33.30
2019-03-28T15:29:48.035Z,33.30
2019-03-28T15:32:18.747Z,32.10
2019-03-28T15:34:49.482Z,32.80
2019-03-28T15:37:20.029Z,33.20
2019-03-28T15:39:50.915Z,33.60
2019-03-28T15:42:21.639Z,33.80
2019-03-28T15:44:52.479Z,34.20
2019-03-28T15:47:23.202Z,34.60
2019-03-28T15:49:53.996Z,34.10
2019-03-28T15:52:27.295Z,34.80
2019-03-28T15:54:56.885Z,34.20
2019-03-28T15:57:28.558Z,33.50
2019-03-28T15:59:59.191Z,33.70
2019-03-28T16:02:29.713Z,34.10
2019-03-28T16:05:00.467Z,34.30
2019-03-28T16:07:31.016Z,34.60
2019-03-28T16:10:01.738Z,35.40
2019-03-28T16:12:32.684Z,35.30
2019-03-28T16:15:03.741Z,35.60
2019-03-28T16:17:35.967Z,35.60
2019-03-28T16:20:08.138Z,34.80
2019-03-28T16:22:38.866Z,35.30
2019-03-28T16:25:09.907Z,35.50
2019-03-28T16:27:40.444Z,35.60
2019-03-28T16:30:16.160Z,36.00
2019-03-28T16:32:46.728Z,35.90
2019-03-28T16:35:20.914Z,36.50
2019-03-28T16:37:51.078Z,36.60
2019-03-28T16:40:22.782Z,36.90
2019-03-28T16:43:12.790Z,36.80
2019-03-28T16:45:43.513Z,36.80
2019-03-28T16:48:14.162Z,36.80
2019-03-28T16:50:46.873Z,36.70
2019-03-28T16:53:17.543Z,37.20
2019-03-28T16:55:49.011Z,37.70
2019-03-28T16:58:20.095Z,37.90
2019-03-28T17:00:52.112Z,38.10
2019-03-28T17:03:22.872Z,38.50
2019-03-28T17:05:57.668Z,38.80
2019-03-28T17:08:37.680Z,39.00
2019-03-28T17:11:08.455Z,38.90
2019-03-28T17:13:39.237Z,39.00
2019-03-28T17:16:12.370Z,39.10
2019-03-28T17:18:43.878Z,39.30
2019-03-28T17:21:19.521Z,39.60
2019-03-28T17:23:50.713Z,39.70
2019-03-28T17:26:21.537Z,40.20
2019-03-28T17:28:53.174Z,40.20
2019-03-28T17:31:23.933Z,40.50
2019-03-28T17:33:54.536Z,40.60
2019-03-28T17:36:26.841Z,40.50
2019-03-28T17:38:56.867Z,40.70
2019-03-28T17:41:27.566Z,40.60
2019-03-28T17:43:58.205Z,40.60
2019-03-28T17:46:30.178Z,40.80
2019-03-28T17:49:00.821Z,40.90
2019-03-28T17:51:31.575Z,41.20
2019-03-28T17:54:02.224Z,41.50
2019-03-28T17:56:35.994Z,41.80
2019-03-28T17:59:06.538Z,42.10
2019-03-28T18:01:37.375Z,42.20
2019-03-28T18:04:08.035Z,42.20
2019-03-28T18:06:38.952Z,42.60
2019-03-28T18:09:09.559Z,42.80
2019-03-28T18:11:40.415Z,42.90
2019-03-28T18:14:11.029Z,43.20
2019-03-28T18:16:45.245Z,43.50
2019-03-28T18:19:15.368Z,43.50
2019-03-28T18:21:46.136Z,43.70
2019-03-28T18:24:16.660Z,43.60
2019-03-28T18:26:47.633Z,44.00
2019-03-28T18:29:19.334Z,44.10
2019-03-28T18:31:52.379Z,44.10
2019-03-28T18:34:23.427Z,44.40
2019-03-28T18:36:54.140Z,44.40
2019-03-28T18:39:24.673Z,44.50
2019-03-28T18:41:56.632Z,44.60
2019-03-28T18:44:27.503Z,44.40
2019-03-28T18:46:58.346Z,44.40
2019-03-28T18:49:31.074Z,44.50
2019-03-28T18:52:01.532Z,44.50
2019-03-28T18:54:32.140Z,44.40
2019-03-28T18:57:03.852Z,44.70
2019-03-28T18:59:34.514Z,44.80
2019-03-28T19:02:05.261Z,44.90
2019-03-28T19:04:35.822Z,45.20
2019-03-28T19:07:07.744Z,45.30
2019-03-28T19:09:38.290Z,45.30
2019-03-28T19:12:09.032Z,45.40
2019-03-28T19:14:39.082Z,45.30
2019-03-28T19:17:10.824Z,45.40
2019-03-28T19:19:41.382Z,45.60
2019-03-28T19:22:12.213Z,45.80
2019-03-28T19:24:42.767Z,45.70
2019-03-28T19:27:13.787Z,45.70
2019-03-28T19:29:43.762Z,45.90
2019-03-28T19:32:14.514Z,46.10
2019-03-28T19:34:45.043Z,46.10
2019-03-28T19:37:16.212Z,46.10
2019-03-28T19:39:46.922Z,46.20
2019-03-28T19:42:17.989Z,46.20
2019-03-28T19:44:49.470Z,46.50
2019-03-28T19:47:20.334Z,46.50
2019-03-28T19:50:11.735Z,46.70
2019-03-28T19:52:42.894Z,46.70
2019-03-28T19:55:16.597Z,46.80
2019-03-28T19:57:48.765Z,47.00
2019-03-28T20:00:21.238Z,46.90
2019-03-28T20:02:51.446Z,45.80
2019-03-28T20:05:21.406Z,45.60
2019-03-28T20:07:52.045Z,45.90
2019-03-28T20:10:22.700Z,45.90
2019-03-28T20:12:53.467Z,46.00
2019-03-28T20:15:24.086Z,47.50
2019-03-28T20:17:54.766Z,47.40
2019-03-28T20:20:25.325Z,47.40
2019-03-28T20:22:56.157Z,47.40
2019-03-28T20:25:26.707Z,47.60
2019-03-28T20:27:57.434Z,47.60
2019-03-28T20:30:27.949Z,48.20
2019-03-28T20:32:58.919Z,50.50
2019-03-28T20:35:30.091Z,50.10
2019-03-28T20:38:00.844Z,49.00
2019-03-28T20:40:31.399Z,48.20
2019-03-28T20:43:02.484Z,48.30
2019-03-28T20:45:32.523Z,48.60
2019-03-28T20:48:03.278Z,48.90
2019-03-28T20:50:36.738Z,48.70
2019-03-28T20:53:07.562Z,48.90
2019-03-28T20:55:40.784Z,49.70
2019-03-28T20:58:12.442Z,49.90
2019-03-28T21:00:45.268Z,50.20
2019-03-28T21:03:16.332Z,50.30
2019-03-28T21:05:47.748Z,50.50
2019-03-28T21:08:17.935Z,50.80
2019-03-28T21:10:48.477Z,51.10
2019-03-28T21:13:19.143Z,51.20
2019-03-28T21:15:49.991Z,51.30
2019-03-28T21:18:20.062Z,51.30
2019-03-28T21:20:50.704Z,51.70
2019-03-28T21:23:21.398Z,52.20
2019-03-28T21:25:51.912Z,52.40
2019-03-28T21:28:46.425Z,52.60
2019-03-28T21:31:06.779Z,53.10
2019-03-28T21:33:37.390Z,53.40
2019-03-28T21:36:08.012Z,54.20
2019-03-28T21:38:38.089Z,53.60
2019-03-28T21:41:08.200Z,53.70
2019-03-28T21:43:38.326Z,53.90
2019-03-28T21:46:09.447Z,53.70
2019-03-28T21:48:39.602Z,53.20
2019-03-28T21:51:11.609Z,53.40
2019-03-28T21:53:42.003Z,53.40
2019-03-28T21:56:14.375Z,53.30
2019-03-28T21:58:46.490Z,53.40
2019-03-28T22:01:17.201Z,53.60
2019-03-28T22:03:47.872Z,54.00
2019-03-28T22:06:18.731Z,54.20
2019-03-28T22:08:50.655Z,54.50
2019-03-28T22:11:21.622Z,54.10
2019-03-28T22:13:52.814Z,53.90
2019-03-28T22:16:24.031Z,54.00
2019-03-28T22:18:54.497Z,53.90
2019-03-28T22:21:27.334Z,54.20
2019-03-28T22:23:57.354Z,53.90
2019-03-28T22:26:27.362Z,53.90
2019-03-28T22:28:57.707Z,54.00
2019-03-28T22:31:28.226Z,53.90
2019-03-28T22:33:58.870Z,54.10
2019-03-28T22:36:29.486Z,53.90
2019-03-28T22:38:59.842Z,54.10
2019-03-28T22:41:39.701Z,54.10
2019-03-28T22:44:10.034Z,54.30
2019-03-28T22:46:40.099Z,54.50
2019-03-28T22:49:10.744Z,54.80
2019-03-28T22:51:41.444Z,54.70
2019-03-28T22:54:14.368Z,54.90
2019-03-28T22:56:45.692Z,54.70
2019-03-28T22:59:17.318Z,54.60
2019-03-28T23:01:48.349Z,54.50
2019-03-28T23:04:18.736Z,54.60
2019-03-28T23:06:49.150Z,54.70
2019-03-28T23:09:19.379Z,54.50
2019-03-28T23:11:49.536Z,54.70
2019-03-28T23:14:19.693Z,54.20
2019-03-28T23:16:50.882Z,54.20
2019-03-28T23:19:21.058Z,54.00
2019-03-28T23:21:51.581Z,54.30
2019-03-28T23:24:21.798Z,54.50
2019-03-28T23:26:53.393Z,54.60
2019-03-28T23:29:24.030Z,54.70
2019-03-28T23:31:53.973Z,54.80
2019-03-28T23:34:24.040Z,54.80
2019-03-28T23:36:55.073Z,55.30
2019-03-28T23:39:25.807Z,55.30
2019-03-28T23:41:55.843Z,54.90
2019-03-28T23:44:25.902Z,55.20
2019-03-28T23:46:57.949Z,55.20
2019-03-28T23:49:28.034Z,55.40
2019-03-28T23:51:58.059Z,55.60
2019-03-28T23:54:28.191Z,55.70
2019-03-28T23:56:59.373Z,55.90
2019-03-28T23:59:30.458Z,56.00
